Time,TemperatureF,DewpointF,PressureIn,WindDirection,WindDirectionDegrees,WindSpeedMPH,WindSpeedGustMPH,Humidity,HourlyPrecipIn,Conditions,Clouds,dailyrainin,SolarRadiationWatts/m^2,SoftwareType,DateUTC
2013-05-28 00:02:00,45.0,10.0,-100.00,North,9,2.0,3.0,24,0.00,,,0.00,0.000000,,2013-05-28 06:02:00,
2013-05-28 00:11:00,45.0,10.0,-100.00,North,9,2.0,3.0,24,0.00,,,0.00,0.000000,,2013-05-28 06:11:00,
2013-05-28 00:21:00,45.0,10.0,-100.00,North,9,2.0,3.0,24,0.00,,,0.00,0.000000,,2013-05-28 06:21:00,
2013-05-28 00:42:00,44.0,12.0,-100.00,ENE,58,2.0,4.0,27,0.00,,,0.00,0.000000,,2013-05-28 06:42:00,
2013-05-28 00:52:00,44.0,12.0,-100.00,ENE,58,2.0,4.0,27,0.00,,,0.00,0.000000,,2013-05-28 06:52:00,
2013-05-28 01:01:00,44.0,12.0,-100.00,ENE,58,2.0,4.0,27,0.00,,,0.00,0.000000,,2013-05-28 07:01:00,
2013-05-28 01:11:00,44.0,12.0,-100.00,ENE,58,2.0,4.0,27,0.00,,,0.00,0.000000,,2013-05-28 07:11:00,
2013-05-28 01:21:00,44.0,12.0,-100.00,ENE,58,2.0,4.0,27,0.00,,,0.00,0.000000,,2013-05-28 07:21:00,
2013-05-28 01:52:00,41.0,13.0,-100.00,East,82,3.0,4.0,31,0.00,,,0.00,0.000000,,2013-05-28 07:52:00,
2013-05-28 02:02:00,41.0,13.0,-100.00,East,82,3.0,4.0,31,0.00,,,0.00,0.000000,,2013-05-28 08:02:00,
2013-05-28 02:11:00,41.0,13.0,-100.00,East,82,3.0,4.0,31,0.00,,,0.00,0.000000,,2013-05-28 08:11:00,
2013-05-28 02:21:00,41.0,13.0,-100.00,East,82,3.0,4.0,31,0.00,,,0.00,0.000000,,2013-05-28 08:21:00,
2013-05-28 02:52:00,40.0,14.0,-100.00,ENE,64,2.0,5.0,34,0.00,,,0.00,0.000000,,2013-05-28 08:52:00,
2013-05-28 03:01:00,40.0,14.0,-100.00,ENE,64,2.0,5.0,34,0.00,,,0.00,0.000000,,2013-05-28 09:01:00,
2013-05-28 03:11:00,40.0,14.0,-100.00,ENE,64,2.0,5.0,34,0.00,,,0.00,0.000000,,2013-05-28 09:11:00,
2013-05-28 03:21:00,40.0,14.0,-100.00,ENE,64,2.0,5.0,34,0.00,,,0.00,0.000000,,2013-05-28 09:21:00,
2013-05-28 03:54:00,39.0,14.0,-100.00,North,359,0.0,3.0,35,0.00,,,0.00,0.000000,,2013-05-28 09:54:00,
2013-05-28 04:03:00,39.0,14.0,-100.00,North,359,0.0,3.0,35,0.00,,,0.00,0.000000,,2013-05-28 10:03:00,
2013-05-28 04:12:00,39.0,14.0,-100.00,North,359,0.0,3.0,35,0.00,,,0.00,0.000000,,2013-05-28 10:12:00,
2013-05-28 04:22:00,39.0,14.0,-100.00,North,359,0.0,3.0,35,0.00,,,0.00,0.000000,,2013-05-28 10:22:00,
2013-05-28 04:53:00,38.0,13.0,-100.00,SE,126,2.0,4.0,36,0.00,,,-99.99,0.000000,,2013-05-28 10:53:00,
2013-05-28 05:02:00,38.0,13.0,-100.00,SE,126,2.0,4.0,36,0.00,,,-99.99,0.000000,,2013-05-28 11:02:00,
2013-05-28 05:11:00,38.0,13.0,-100.00,SE,126,2.0,4.0,36,0.00,,,-99.99,0.000000,,2013-05-28 11:11:00,
2013-05-28 05:22:00,38.0,13.0,-100.00,SE,126,2.0,4.0,36,0.00,,,-99.99,0.000000,,2013-05-28 11:22:00,
2013-05-28 05:52:00,36.0,14.0,-100.00,ESE,103,1.0,4.0,40,0.00,,,0.00,0.000000,,2013-05-28 11:52:00,
2013-05-28 06:01:00,36.0,14.0,-100.00,ESE,103,1.0,4.0,40,0.00,,,0.00,0.000000,,2013-05-28 12:01:00,
2013-05-28 06:11:00,36.0,14.0,-100.00,ESE,103,1.0,4.0,40,0.00,,,0.00,0.000000,,2013-05-28 12:11:00,
2013-05-28 06:21:00,36.0,14.0,-100.00,ESE,103,1.0,4.0,40,0.00,,,0.00,0.000000,,2013-05-28 12:21:00,
2013-05-28 06:42:00,37.0,14.0,-100.00,East,100,0.0,3.0,39,0.00,,,0.00,2.000000,,2013-05-28 12:42:00,
2013-05-28 06:52:00,37.0,14.0,-100.00,East,100,0.0,3.0,39,0.00,,,0.00,2.000000,,2013-05-28 12:52:00,
2013-05-28 07:01:00,37.0,14.0,-100.00,East,100,0.0,3.0,39,0.00,,,0.00,2.000000,,2013-05-28 13:01:00,
2013-05-28 07:11:00,37.0,14.0,-100.00,East,100,0.0,3.0,39,0.00,,,0.00,2.000000,,2013-05-28 13:11:00,
2013-05-28 07:21:00,37.0,14.0,-100.00,East,100,0.0,3.0,39,0.00,,,0.00,2.000000,,2013-05-28 13:21:00,
2013-05-28 07:42:00,44.0,16.0,-100.00,ESE,112,3.0,4.0,32,0.00,,,0.00,65.000000,,2013-05-28 13:42:00,
2013-05-28 07:52:00,44.0,16.0,-100.00,ESE,112,3.0,4.0,32,0.00,,,0.00,65.000000,,2013-05-28 13:52:00,
2013-05-28 08:01:00,44.0,16.0,-100.00,ESE,112,3.0,4.0,32,0.00,,,0.00,65.000000,,2013-05-28 14:01:00,
2013-05-28 08:11:00,44.0,16.0,-100.00,ESE,112,3.0,4.0,32,0.00,,,0.00,65.000000,,2013-05-28 14:11:00,
2013-05-28 08:21:00,44.0,16.0,-100.00,ESE,112,3.0,4.0,32,0.00,,,0.00,65.000000,,2013-05-28 14:21:00,
2013-05-28 08:42:00,50.0,23.0,-100.00,SSE,159,4.0,6.0,34,0.00,,,0.00,182.000000,,2013-05-28 14:42:00,
2013-05-28 08:52:00,50.0,23.0,-100.00,SSE,159,4.0,6.0,34,0.00,,,0.00,182.000000,,2013-05-28 14:52:00,
2013-05-28 09:01:00,50.0,23.0,-100.00,SSE,159,4.0,6.0,34,0.00,,,0.00,182.000000,,2013-05-28 15:01:00,
2013-05-28 09:11:00,50.0,23.0,-100.00,SSE,159,4.0,6.0,34,0.00,,,0.00,182.000000,,2013-05-28 15:11:00,
2013-05-28 09:21:00,50.0,23.0,-100.00,SSE,159,4.0,6.0,34,0.00,,,0.00,182.000000,,2013-05-28 15:21:00,
2013-05-28 09:53:00,57.0,22.0,-100.00,South,189,6.0,10.0,25,0.00,,,0.00,386.000000,,2013-05-28 15:53:00,
2013-05-28 10:03:00,57.0,22.0,-100.00,South,189,6.0,10.0,25,0.00,,,0.00,386.000000,,2013-05-28 16:03:00,
2013-05-28 10:12:00,57.0,22.0,-100.00,South,189,6.0,10.0,25,0.00,,,0.00,386.000000,,2013-05-28 16:12:00,
2013-05-28 10:22:00,57.0,22.0,-100.00,South,189,6.0,10.0,25,0.00,,,0.00,386.000000,,2013-05-28 16:22:00,
2013-05-28 10:52:00,58.0,22.0,-100.00,SSW,202,7.0,12.0,25,0.00,,,-99.99,524.000000,,2013-05-28 16:52:00,
2013-05-28 11:02:00,58.0,22.0,-100.00,SSW,202,7.0,12.0,25,0.00,,,-99.99,524.000000,,2013-05-28 17:02:00,
2013-05-28 11:12:00,58.0,22.0,-100.00,SSW,202,7.0,12.0,25,0.00,,,-99.99,524.000000,,2013-05-28 17:12:00,
2013-05-28 11:22:00,58.0,22.0,-100.00,SSW,202,7.0,12.0,25,0.00,,,-99.99,524.000000,,2013-05-28 17:22:00,
2013-05-28 11:52:00,61.0,24.0,-100.00,South,188,8.0,14.0,24,0.00,,,0.00,775.000000,,2013-05-28 17:52:00,
2013-05-28 12:01:00,61.0,24.0,-100.00,South,188,8.0,14.0,24,0.00,,,0.00,775.000000,,2013-05-28 18:01:00,
2013-05-28 12:11:00,61.0,24.0,-100.00,South,188,8.0,14.0,24,0.00,,,0.00,775.000000,,2013-05-28 18:11:00,
2013-05-28 12:21:00,61.0,24.0,-100.00,South,188,8.0,14.0,24,0.00,,,0.00,775.000000,,2013-05-28 18:21:00,
2013-05-28 12:52:00,62.0,25.0,-100.00,SSE,159,9.0,16.0,24,0.00,,,0.00,747.000000,,2013-05-28 18:52:00,
2013-05-28 13:01:00,62.0,25.0,-100.00,SSE,159,9.0,16.0,24,0.00,,,0.00,747.000000,,2013-05-28 19:01:00,
2013-05-28 13:11:00,62.0,25.0,-100.00,SSE,159,9.0,16.0,24,0.00,,,0.00,747.000000,,2013-05-28 19:11:00,
2013-05-28 13:21:00,62.0,25.0,-100.00,SSE,159,9.0,16.0,24,0.00,,,0.00,747.000000,,2013-05-28 19:21:00,
2013-05-28 13:52:00,63.0,24.0,-100.00,South,187,11.0,20.0,22,0.00,,,0.00,924.000000,,2013-05-28 19:52:00,
2013-05-28 14:01:00,63.0,24.0,-100.00,South,187,11.0,20.0,22,0.00,,,0.00,924.000000,,2013-05-28 20:01:00,
2013-05-28 14:11:00,63.0,24.0,-100.00,South,187,11.0,20.0,22,0.00,,,0.00,924.000000,,2013-05-28 20:11:00,
2013-05-28 14:22:00,63.0,24.0,-100.00,South,187,11.0,20.0,22,0.00,,,0.00,924.000000,,2013-05-28 20:22:00,
2013-05-28 14:52:00,62.0,19.0,-100.00,South,183,12.0,23.0,19,0.00,,,0.00,960.000000,,2013-05-28 20:52:00,
2013-05-28 15:01:00,62.0,19.0,-100.00,South,183,12.0,23.0,19,0.00,,,0.00,960.000000,,2013-05-28 21:01:00,
2013-05-28 15:11:00,62.0,19.0,-100.00,South,183,12.0,23.0,19,0.00,,,0.00,960.000000,,2013-05-28 21:11:00,
2013-05-28 15:21:00,62.0,19.0,-100.00,South,183,12.0,23.0,19,0.00,,,0.00,960.000000,,2013-05-28 21:21:00,
2013-05-28 15:53:00,64.0,18.0,-100.00,SSW,198,11.0,20.0,17,0.00,,,0.00,842.000000,,2013-05-28 21:53:00,
2013-05-28 16:02:00,64.0,18.0,-100.00,SSW,198,11.0,20.0,17,0.00,,,0.00,842.000000,,2013-05-28 22:02:00,
2013-05-28 16:12:00,64.0,18.0,-100.00,SSW,198,11.0,20.0,17,0.00,,,0.00,842.000000,,2013-05-28 22:12:00,
2013-05-28 16:22:00,64.0,18.0,-100.00,SSW,198,11.0,20.0,17,0.00,,,0.00,842.000000,,2013-05-28 22:22:00,
2013-05-28 16:52:00,65.0,22.0,-100.00,SSW,199,9.0,23.0,19,0.00,,,0.00,713.000000,,2013-05-28 22:52:00,
2013-05-28 17:02:00,65.0,22.0,-100.00,SSW,199,9.0,23.0,19,0.00,,,0.00,713.000000,,2013-05-28 23:02:00,
2013-05-28 17:11:00,65.0,22.0,-100.00,SSW,199,9.0,23.0,19,0.00,,,0.00,713.000000,,2013-05-28 23:11:00,
2013-05-28 17:21:00,65.0,22.0,-100.00,SSW,199,9.0,23.0,19,0.00,,,0.00,713.000000,,2013-05-28 23:21:00,
2013-05-28 17:52:00,64.0,23.0,-100.00,SSW,203,9.0,23.0,21,0.00,,,0.00,410.000000,,2013-05-28 23:52:00,
2013-05-28 18:02:00,64.0,23.0,-100.00,SSW,203,9.0,23.0,21,0.00,,,0.00,410.000000,,2013-05-29 00:02:00,
2013-05-28 18:11:00,64.0,23.0,-100.00,SSW,203,9.0,23.0,21,0.00,,,0.00,410.000000,,2013-05-29 00:11:00,
2013-05-28 18:21:00,64.0,23.0,-100.00,SSW,203,9.0,23.0,21,0.00,,,0.00,410.000000,,2013-05-29 00:21:00,
2013-05-28 18:52:00,61.0,16.0,-100.00,SW,228,8.0,20.0,17,0.00,,,0.00,382.000000,,2013-05-29 00:52:00,
2013-05-28 19:01:00,61.0,16.0,-100.00,SW,228,8.0,20.0,17,0.00,,,0.00,382.000000,,2013-05-29 01:01:00,
2013-05-28 19:11:00,61.0,16.0,-100.00,SW,228,8.0,20.0,17,0.00,,,0.00,382.000000,,2013-05-29 01:11:00,
2013-05-28 19:21:00,61.0,16.0,-100.00,SW,228,8.0,20.0,17,0.00,,,0.00,382.000000,,2013-05-29 01:21:00,
2013-05-28 19:42:00,60.0,18.0,-100.00,SW,217,9.0,20.0,19,0.00,,,0.00,212.000000,,2013-05-29 01:42:00,
2013-05-28 19:52:00,60.0,18.0,-100.00,SW,217,9.0,20.0,19,0.00,,,0.00,212.000000,,2013-05-29 01:52:00,
2013-05-28 20:02:00,60.0,18.0,-100.00,SW,217,9.0,20.0,19,0.00,,,0.00,212.000000,,2013-05-29 02:02:00,
2013-05-28 20:12:00,60.0,18.0,-100.00,SW,217,9.0,20.0,19,0.00,,,0.00,212.000000,,2013-05-29 02:12:00,
2013-05-28 20:21:00,60.0,18.0,-100.00,SW,217,9.0,20.0,19,0.00,,,0.00,212.000000,,2013-05-29 02:21:00,
2013-05-28 20:52:00,58.0,19.0,-100.00,SW,219,6.0,14.0,22,0.00,,,0.00,49.000000,,2013-05-29 02:52:00,
2013-05-28 21:01:00,58.0,19.0,-100.00,SW,219,6.0,14.0,22,0.00,,,0.00,49.000000,,2013-05-29 03:01:00,
2013-05-28 21:11:00,58.0,19.0,-100.00,SW,219,6.0,14.0,22,0.00,,,0.00,49.000000,,2013-05-29 03:11:00,
2013-05-28 21:21:00,58.0,19.0,-100.00,SW,219,6.0,14.0,22,0.00,,,0.00,49.000000,,2013-05-29 03:21:00,
2013-05-28 22:12:00,50.0,34.0,-100.00,West,262,13.0,42.0,53,0.00,,,0.00,2.000000,,2013-05-29 04:12:00,
2013-05-28 22:23:00,50.0,34.0,-100.00,West,262,13.0,42.0,53,0.00,,,0.00,2.000000,,2013-05-29 04:23:00,
2013-05-28 22:52:00,49.0,33.0,-100.00,WSW,253,7.0,24.0,54,0.00,,,0.00,0.000000,,2013-05-29 04:52:00,
2013-05-28 23:02:00,49.0,33.0,-100.00,WSW,253,7.0,24.0,54,0.00,,,0.00,0.000000,,2013-05-29 05:02:00,
2013-05-28 23:12:00,49.0,33.0,-100.00,WSW,253,7.0,24.0,54,0.00,,,0.00,0.000000,,2013-05-29 05:12:00,
2013-05-28 23:22:00,49.0,33.0,-100.00,WSW,253,7.0,24.0,54,0.00,,,0.00,0.000000,,2013-05-29 05:22:00,
2013-05-28 23:42:00,47.0,37.0,-100.00,WSW,257,2.0,20.0,67,0.00,,,0.00,0.000000,,2013-05-29 05:42:00,
2013-05-28 23:52:00,47.0,37.0,-100.00,WSW,257,2.0,20.0,67,0.00,,,0.00,0.000000,,2013-05-29 05:52:00,